AirNav   Everest Fuels
 
 1537 users online  

KCRT Z M Jack Stell Field Airport
Crossett, Arkansas, USA

GOING TO CROSSETT?


FAA INFORMATION EFFECTIVE 31 DECEMBER 2020

Location

FAA Identifier: CRT
Lat/Long: 33-10-42.0000N 091-52-48.7000W
33-10.700000N 091-52.811667W
33.1783333,-91.8801944
(estimated)
Elevation: 183.5 ft. / 55.9 m (surveyed)
Variation: 02E (2005)
From city: 5 miles NE of CROSSETT, AR
Time zone: UTC -6 (UTC -5 during Daylight Saving Time)
Zip code: 71635

Airport Operations

Airport use: Open to the public
Activation date: 06/1951
Control tower: no
ARTCC: MEMPHIS CENTER
FSS: JONESBORO FLIGHT SERVICE STATION
NOTAMs facility: JBR (NOTAM-D service available)
Attendance: MON-FRI IREG
Wind indicator: lighted
Segmented circle: yes
Lights: SS-SR
Beacon: white-green (lighted land airport)
Operates sunset to sunrise.
Landing fee: yes, FEE CHRGD ACFT GTR THAN 8645 LBS UNLESS FUEL PURCHASED.

Airport Communications

CTAF/UNICOM: 122.8
  • APCH/DEP SVC PRVDD BY MEMPHIS ARTCC ON FREQS 135.875/269.35 (GREENVILLE RCAG & PINE BLUFF RCAG).

Nearby radio navigation aids

VOR radial/distance  VOR name  Freq  Var
MONr196/24.5MONTICELLO VOR/DME111.6004E

 
NDB name  Hdg/Dist  Freq  Var  ID
BASTROP357/25.432903EBQP -... --.- .--.

Airport Services

Fuel available: 100LL JET-A
SELF SERVE FUEL AVBL 24 HRS WITH CREDIT CARD.
Parking: hangars and tiedowns
Bottled oxygen: NONE
Bulk oxygen: NONE

Runway Information

Runway 5/23

Dimensions: 5010 x 75 ft. / 1527 x 23 m
Surface: asphalt, in good condition
Weight bearing capacity: 
Single wheel: 19.0
Runway edge lights: medium intensity
RUNWAY 5  RUNWAY 23
Latitude: 33-10.444497N33-10.955968N
Longitude: 091-53.196535W091-52.425142W
Elevation: 177.7 ft.183.1 ft.
Traffic pattern: leftleft
Runway heading: 050 magnetic, 052 true230 magnetic, 232 true
Markings: nonprecision, in good conditionnonprecision, in good condition
Visual slope indicator: 2-light PAPI on left (3.25 degrees glide path)
PAPI NIGHTTIME ONLY
2-light PAPI on left (3.25 degrees glide path)
PAPI NIGHTTIME ONLY
Touchdown point: yes, no lightsyes, no lights
Obstructions: 45 ft. trees, 600 ft. from runway, 300 ft. left of centerline, 8:1 slope to clearnone

Airport Ownership and Management from official FAA records

Ownership: Publicly-owned
Owner: CITY OF CROSSETT
201 MAIN
CROSSETT, AR 71635
Phone 870-364-4131
Manager: TODD FREEMAN
PO BOX 637
CROSSETT, AR 71635
Phone 870-304-3313

Airport Operational Statistics

Aircraft based on the field: 14
Single engine airplanes: 13
Multi engine airplanes: 1
    
Aircraft operations: avg 45/day *
72% local general aviation
27% transient general aviation
<1% military
<1% air taxi
* for 12-month period ending 31 January 2020

Additional Remarks

MIDFIELD TWY CLSD TO ACFT OVER 6000 LBS.
FOR CD CTC MEMPHIS ARTCC AT 901-368-8453.

Instrument Procedures

NOTE: All procedures below are presented as PDF files. If you need a reader for these files, you should download the free Adobe Reader.

NOT FOR NAVIGATION. Please procure official charts for flight.
FAA instrument procedures published for use from 31 December 2020 at 0901Z to 28 January 2021 at 0900Z.

 
IAPs - Instrument Approach Procedures
RNAV (GPS) RWY 23   download (231KB)
VOR-A   download (178KB)
NOTE: Special Take-Off Minimums/Departure Procedures apply   download (131KB)

Other nearby airports with instrument procedures:

3M9 - Warren Municipal Airport (25 nm NW)
KBQP - Morehouse Memorial Airport (25 nm S)
KLLQ - Monticello Municipal Airport/Ellis Field (28 nm N)
M32 - Lake Village Municipal Airport (30 nm E)
7M1 - Mc Gehee Municipal Airport (37 nm NE)
 
Loc | Ops | Rwys | IFR | FBO | Links
Com | Nav | Svcs | Stats | Notes
Area around KCRT (Z M Jack Stell Field Airport)
 
Road maps at: MapQuest Bing Google
 
Aerial photo
WARNING: Photo may not be current or correct
Aerial photo of KCRT (Z M Jack Stell Field Airport)
Photo courtesy of the Arkansas Department of Aeronautics
Taken in the Spring of 2007

Do you have a better or more recent aerial photo of Z M Jack Stell Field Airport that you would like to share? If so, please send us your photo.

 
Sectional chart

 
Airport distance calculator
Flying to Z M Jack Stell Field Airport? Find the distance to fly.

From to KCRT

Sunrise and sunset
Times for 25-Jan-2021
 Local
(UTC-6)
 Zulu
(UTC)
Morning civil twilight06:4212:42
Sunrise07:0813:08
Sunset17:3223:32
Evening civil twilight17:5823:58

Current date and time
Zulu (UTC)  25-Jan-2021 18:24:26
Local (UTC-6)  25-Jan-2021 12:24:26
 
METAR
KBQP 
25nm S 
251755Z AUTO 18009G18KT 150V210 10SM BKN018 OVC025 22/18 A2971 RMK AO2 T02150180 10218 20190
KLLQ 
28nm N 
251753Z AUTO 20015G25KT 10SM BKN025 BKN030 OVC037 22/18 A2965 RMK AO2 PK WND 20029/1709 SLP039 60002 T02220178 10239 20183 58009
KMLU 
40nm S 
251753Z 20015G24KT 10SM BKN018 OVC027 22/19 A2972 RMK AO2 PK WND 18026/1710 SLP064 T02170189 10222 20200 56012
KELD 
47nm W 
251753Z AUTO 17011G20KT 10SM BKN023 OVC029 22/18 A2964 RMK AO2 RAB20E30 SLP034 P0000 60000 T02170178 10222 20183 58008
KGLH 
49nm NE 
251753Z 20020G30KT 10SM FEW024 SCT080 SCT090 24/19 A2969 RMK AO2 PK WND 19037/1726 SLP058 T02390189 10239 20167 58011
TAF
KLLQ 
28nm N 
251736Z 2518/2618 21015G24KT P6SM VCTS BKN025 OVC030CB WS020/20045KT TEMPO 2519/2520 VRB15G30KT 4SM TSRA BR BKN010 OVC030CB FM252100 22012G20KT P6SM SCT025 BKN040 FM260400 23005KT P6SM SCT250
NOTAMs
Click for the latest NOTAMs
NOTAMs are issued by the DoD/FAA and will open in a separate window not controlled by AirNav.

 

 
 

FBO, Fuel Providers, and Aircraft Ground Support

  
 Business Name 
 
 Contact 
 
 Services / Description 
 
Fuel Prices
 
Comments
  
Crossett Airport Commission 870-304-3313
[email]
Aviation fuel, Aircraft parking (ramp or tiedown), Hangar leasing / sales, Passenger terminal and lounge, ...

More info about Crossett Airport Commission
independent
100LL Jet A
SS $3.35 $3.00 
 Updated 20-Jan-2021
 
   write
SS=Self service
Update Fuel Prices
 

Would you like to see your business listed on this page?

 If your business provides an interesting product or service to pilots, flight crews, aircraft, or users of the Z M Jack Stell Field Airport, you should consider listing it here.  To start the listing process, click on the button below
 
Add a business
 

Other Pages about Z M Jack Stell Field Airport

Update a link
 
Copyright © AirNav, LLC. All rights reserved. Privacy Policy  Contact